Time;durP1;ratioP1;P1;durP2;ratioP2;P2;SDS_P1;SDS_P2;PMS_P1;PMS_P2;Temp;Humidity;BMP_temperature;BMP_pressure;BME280_temperature;BME280_humidity;BME280_pressure;Samples;Min_cycle;Max_cycle;Signal;HPM_P1;HPM_P2
2022/06/17 00:00:29;;;;;;;3.45;3.00;;;;;;;15.29;63.61;101125.47;5076160;28;20052;-84
2022/06/17 00:02:59;;;;;;;4.05;2.85;;;;;;;15.24;64.25;101125.63;5071904;28;20040;-83
2022/06/17 00:05:27;;;;;;;3.78;2.90;;;;;;;15.20;63.96;101131.09;5076160;28;20059;-83
2022/06/17 00:07:54;;;;;;;3.50;2.92;;;;;;;15.17;64.29;101144.97;5075827;28;20059;-83
2022/06/17 00:10:27;;;;;;;3.72;3.03;;;;;;;15.12;64.57;101142.28;5072871;28;20404;-83
2022/06/17 00:12:58;;;;;;;4.97;3.33;;;;;;;15.11;64.36;101132.25;5067890;28;20056;-84
2022/06/17 00:15:25;;;;;;;3.72;3.00;;;;;;;15.10;63.96;101150.22;5075984;28;20056;-82
2022/06/17 00:17:54;;;;;;;4.03;2.85;;;;;;;15.06;64.18;101129.59;5075810;28;20424;-82
2022/06/17 00:20:24;;;;;;;4.63;3.40;;;;;;;14.98;64.53;101123.63;5072248;28;20055;-82
2022/06/17 00:22:55;;;;;;;4.53;3.00;;;;;;;14.97;64.44;101126.75;5057142;28;20049;-82
2022/06/17 00:25:27;;;;;;;5.60;3.53;;;;;;;14.90;64.54;101121.66;5055065;28;20057;-82
2022/06/17 00:27:56;;;;;;;4.50;3.50;;;;;;;14.82;64.77;101122.47;5067424;28;20049;-82
2022/06/17 00:30:26;;;;;;;3.67;2.90;;;;;;;14.79;65.05;101117.50;5090755;28;20045;-82
2022/06/17 00:32:55;;;;;;;4.35;3.20;;;;;;;14.77;64.97;101115.03;5074738;28;20056;-82
2022/06/17 00:35:25;;;;;;;3.70;3.17;;;;;;;14.76;65.17;101110.59;5075518;28;20049;-82
2022/06/17 00:37:52;;;;;;;4.72;3.35;;;;;;;14.72;65.10;101105.94;5075494;28;20048;-82
2022/06/17 00:40:23;;;;;;;4.35;3.10;;;;;;;14.68;64.93;101110.53;5075328;28;20056;-80
2022/06/17 00:42:51;;;;;;;3.95;3.20;;;;;;;14.66;65.28;101108.09;5073560;28;20049;-82
2022/06/17 00:45:28;;;;;;;5.13;3.08;;;;;;;14.61;65.13;101100.66;5074974;28;20056;-82
2022/06/17 00:48:02;;;;;;;4.95;3.50;;;;;;;14.61;65.78;101102.63;5076087;28;20044;-82
2022/06/17 00:50:38;;;;;;;3.40;3.10;;;;;;;14.53;66.04;101109.84;5074953;28;20045;-82
2022/06/17 00:53:17;;;;;;;5.60;3.35;;;;;;;14.54;66.14;101103.06;5072482;28;20417;-82
2022/06/17 00:55:50;;;;;;;4.82;3.33;;;;;;;14.52;65.62;101093.34;5074516;28;20060;-82
2022/06/17 00:58:21;;;;;;;3.80;3.03;;;;;;;14.49;65.69;101085.56;5074958;28;20416;-82
2022/06/17 01:00:52;;;;;;;5.40;3.55;;;;;;;14.44;65.67;101082.94;5075009;28;20067;-85
2022/06/17 01:03:27;;;;;;;6.93;3.35;;;;;;;14.33;66.24;101072.03;5071988;28;20049;-83
2022/06/17 01:06:08;;;;;;;4.43;3.47;;;;;;;14.29;65.85;101076.63;5075096;28;20053;-83
2022/06/17 01:11:26;;;;;;;4.35;3.60;;;;;;;14.26;66.60;101090.44;5077597;28;20067;-82
2022/06/17 01:13:54;;;;;;;3.75;3.38;;;;;;;14.27;66.60;101083.72;5068286;28;20060;-82
2022/06/17 01:16:26;;;;;;;3.95;3.05;;;;;;;14.29;67.06;101095.41;5074936;28;20520;-83
2022/06/17 01:18:58;;;;;;;3.88;3.30;;;;;;;14.30;66.97;101094.25;5074489;28;20049;-82
2022/06/17 01:21:32;;;;;;;5.32;4.07;;;;;;;14.27;67.20;101104.13;5074193;28;20044;-82
2022/06/17 01:24:01;;;;;;;4.55;4.05;;;;;;;14.25;67.15;101105.63;5070050;28;20051;-82
2022/06/17 01:26:28;;;;;;;5.05;3.60;;;;;;;14.15;67.30;101110.38;5073597;28;20056;-83
2022/06/17 01:28:56;;;;;;;6.03;3.30;;;;;;;14.18;66.96;101106.09;5084632;28;20048;-83
2022/06/17 01:31:23;;;;;;;4.47;3.03;;;;;;;14.11;67.28;101106.56;5094533;28;20059;-83
2022/06/17 01:33:51;;;;;;;5.45;3.75;;;;;;;14.11;67.54;101116.94;5075928;28;20053;-83
2022/06/17 01:36:21;;;;;;;5.43;3.53;;;;;;;14.07;67.27;101115.91;5073736;28;20055;-83
2022/06/17 01:38:52;;;;;;;4.10;3.38;;;;;;;14.07;67.55;101122.38;5074288;28;20052;-83
2022/06/17 01:41:25;;;;;;;5.28;3.75;;;;;;;14.06;67.26;101120.69;5074225;28;20060;-83
2022/06/17 01:43:56;;;;;;;4.00;3.45;;;;;;;14.01;67.33;101124.47;5069020;28;20071;-82
2022/06/17 01:46:27;;;;;;;4.38;3.40;;;;;;;14.01;67.66;101123.66;5074101;28;20511;-83
2022/06/17 01:49:00;;;;;;;4.60;3.53;;;;;;;13.98;67.41;101124.28;5073512;28;20489;-82
2022/06/17 01:51:32;;;;;;;4.60;3.40;;;;;;;14.00;67.96;101116.38;5072040;28;20399;-83
2022/06/17 01:54:06;;;;;;;4.28;3.80;;;;;;;13.98;67.42;101118.69;5073654;28;20056;-82
2022/06/17 01:56:37;;;;;;;4.80;3.50;;;;;;;13.90;67.83;101114.69;5089002;28;20056;-83
2022/06/17 01:59:10;;;;;;;4.43;3.42;;;;;;;13.89;67.90;101115.00;5094140;28;20423;-83
2022/06/17 02:01:41;;;;;;;8.82;4.18;;;;;;;13.86;68.38;101124.03;5075725;28;20408;-83
2022/06/17 02:04:12;;;;;;;4.32;3.58;;;;;;;13.79;68.78;101128.13;5073845;28;20049;-83
2022/06/17 02:06:46;;;;;;;5.18;3.55;;;;;;;13.78;68.36;101128.47;5072908;28;20404;-83
2022/06/17 02:09:14;;;;;;;4.43;3.33;;;;;;;13.75;68.92;101118.75;5073566;28;20059;-83
2022/06/17 02:11:43;;;;;;;5.03;3.67;;;;;;;13.76;68.53;101114.78;5071209;28;20413;-83
2022/06/17 02:14:10;;;;;;;4.30;3.70;;;;;;;13.74;68.99;101119.88;5073025;28;20052;-83
2022/06/17 02:16:41;;;;;;;4.43;3.60;;;;;;;13.77;68.72;101110.84;5073062;28;20059;-74
2022/06/17 02:19:09;;;;;;;6.45;4.20;;;;;;;13.79;68.51;101111.31;5072283;28;20052;-74
2022/06/17 02:21:41;;;;;;;6.78;4.18;;;;;;;13.81;68.13;101113.81;5068859;28;20049;-74
2022/06/17 02:24:11;;;;;;;7.35;3.53;;;;;;;13.81;68.50;101117.44;5070101;28;20060;-75
2022/06/17 02:26:43;;;;;;;4.97;4.28;;;;;;;13.84;68.46;101112.34;5070732;28;20044;-74
2022/06/17 02:29:12;;;;;;;4.13;3.60;;;;;;;13.84;68.48;101121.59;5052591;28;20136;-74
2022/06/17 02:31:42;;;;;;;4.20;3.70;;;;;;;13.83;68.90;101127.50;5058301;28;20052;-74
2022/06/17 02:34:13;;;;;;;6.15;3.70;;;;;;;13.80;69.19;101124.19;5072133;28;20504;-74
2022/06/17 02:36:45;;;;;;;4.28;3.67;;;;;;;13.79;68.82;101124.50;5076644;28;20151;-74
2022/06/17 02:39:14;;;;;;;4.63;3.85;;;;;;;13.75;68.77;101121.53;5072854;28;20048;-74
2022/06/17 02:41:44;;;;;;;7.53;3.80;;;;;;;13.73;68.44;101128.59;5068735;28;20057;-74
2022/06/17 02:44:18;;;;;;;5.22;4.05;;;;;;;13.71;68.40;101131.72;5070830;28;20044;-75
2022/06/17 02:46:47;;;;;;;3.75;3.22;;;;;;;13.63;68.60;101129.69;5072601;28;20056;-74
2022/06/17 02:49:17;;;;;;;5.63;3.90;;;;;;;13.64;69.12;101124.91;5070533;28;20056;-74
2022/06/17 02:51:45;;;;;;;5.32;3.50;;;;;;;13.66;69.04;101117.84;5054122;28;20508;-74
2022/06/17 02:54:16;;;;;;;4.60;4.13;;;;;;;13.64;68.59;101134.13;5051888;28;20049;-74
2022/06/17 02:56:51;;;;;;;4.30;3.65;;;;;;;13.61;68.75;101131.97;5059706;28;20048;-75
2022/06/17 02:59:23;;;;;;;4.70;3.80;;;;;;;13.58;68.99;101127.00;5072282;28;20060;-74
2022/06/17 03:01:54;;;;;;;5.38;4.00;;;;;;;13.54;68.79;101129.63;5069777;28;20500;-74
2022/06/17 03:04:27;;;;;;;4.32;3.92;;;;;;;13.53;68.81;101135.53;5071955;28;20052;-75
2022/06/17 03:06:55;;;;;;;5.55;4.20;;;;;;;13.53;69.00;101129.94;5072484;28;20405;-75
2022/06/17 03:09:26;;;;;;;5.10;3.90;;;;;;;13.51;68.96;101121.03;5076123;28;20427;-74
2022/06/17 03:11:57;;;;;;;5.55;4.43;;;;;;;13.50;68.54;101120.22;5072179;28;20079;-74
2022/06/17 03:14:29;;;;;;;4.65;3.92;;;;;;;13.50;68.55;101125.81;5075967;28;20053;-74
2022/06/17 03:17:01;;;;;;;7.72;3.80;;;;;;;13.46;68.85;101129.53;5076116;28;20074;-74
2022/06/17 03:19:31;;;;;;;6.25;4.05;;;;;;;13.42;69.13;101128.53;5076347;28;20411;-74
2022/06/17 03:21:59;;;;;;;5.57;4.00;;;;;;;13.43;69.40;101130.19;5067881;28;20051;-75
2022/06/17 03:24:32;;;;;;;5.38;4.22;;;;;;;13.45;69.29;101128.72;5075757;28;20416;-75
2022/06/17 03:27:08;;;;;;;5.90;4.45;;;;;;;13.47;69.01;101125.63;5079398;28;20049;-74
2022/06/17 03:29:39;;;;;;;5.90;4.00;;;;;;;13.48;69.19;101132.84;5092389;28;20059;-74
2022/06/17 03:32:11;;;;;;;6.00;4.43;;;;;;;13.44;69.24;101132.69;5076430;28;20408;-74
2022/06/17 03:34:44;;;;;;;5.88;3.80;;;;;;;13.47;68.75;101132.03;5076239;28;20056;-75
2022/06/17 03:37:17;;;;;;;4.35;3.80;;;;;;;13.48;68.71;101136.50;5075616;28;20056;-74
2022/06/17 03:39:52;;;;;;;5.60;4.28;;;;;;;13.45;69.01;101134.31;5075277;28;20055;-75
2022/06/17 03:42:27;;;;;;;4.47;3.92;;;;;;;13.44;68.95;101145.81;5073021;28;20051;-76
2022/06/17 03:45:00;;;;;;;5.68;3.88;;;;;;;13.38;69.12;101140.38;5081028;28;20358;-74
2022/06/17 03:47:34;;;;;;;4.40;3.80;;;;;;;13.35;69.52;101134.56;5075820;28;20057;-74
2022/06/17 03:50:08;;;;;;;4.63;4.15;;;;;;;13.37;69.37;101133.09;5071648;28;20083;-74
2022/06/17 03:52:42;;;;;;;5.75;4.25;;;;;;;13.41;69.45;101138.91;5075741;28;20048;-75
2022/06/17 03:55:17;;;;;;;5.07;4.45;;;;;;;13.43;69.78;101130.19;5075219;28;20393;-75
2022/06/17 03:57:50;;;;;;;6.20;4.10;;;;;;;13.45;70.14;101125.09;5075073;28;20063;-75
2022/06/17 04:00:23;;;;;;;4.68;4.07;;;;;;;13.54;70.06;101135.22;5071110;28;20057;-75
2022/06/17 04:02:52;;;;;;;5.72;4.45;;;;;;;13.61;69.89;101137.59;5055453;28;20053;-75
2022/06/17 04:05:21;;;;;;;4.78;4.22;;;;;;;13.65;69.91;101144.19;5054746;28;20064;-75
2022/06/17 04:07:49;;;;;;;8.18;3.72;;;;;;;13.75;69.48;101137.50;5055368;28;20053;-75
2022/06/17 04:10:21;;;;;;;6.30;4.75;;;;;;;13.85;69.07;101136.41;5057903;28;20045;-75
2022/06/17 04:12:52;;;;;;;5.75;3.50;;;;;;;13.93;68.56;101130.84;5066850;28;20045;-75
2022/06/17 04:15:35;;;;;;;4.13;3.70;;;;;;;13.99;68.64;101123.97;5073193;28;20052;-75
2022/06/17 04:18:02;;;;;;;4.25;3.63;;;;;;;14.13;68.45;101125.84;5073721;28;20159;-75
2022/06/17 04:20:41;;;;;;;10.75;4.47;;;;;;;14.29;67.95;101124.25;5071854;28;20060;-75
2022/06/17 04:23:13;;;;;;;7.50;4.30;;;;;;;14.39;67.91;101126.78;5072861;28;20385;-76
2022/06/17 04:25:45;;;;;;;6.38;3.97;;;;;;;14.57;67.53;101140.88;5076812;28;20056;-75
2022/06/17 04:28:18;;;;;;;7.70;3.90;;;;;;;14.68;66.97;101147.84;5074163;28;20493;-75
2022/06/17 04:30:48;;;;;;;4.53;4.13;;;;;;;14.84;66.41;101158.59;5071702;28;20060;-75
2022/06/17 04:33:27;;;;;;;6.68;4.10;;;;;;;14.94;66.43;101161.91;5074076;28;20048;-75
2022/06/17 04:36:00;;;;;;;4.65;3.80;;;;;;;15.05;66.57;101165.22;5074224;28;20057;-75
2022/06/17 04:38:29;;;;;;;6.00;3.72;;;;;;;15.22;66.09;101159.66;5074285;28;20060;-76
2022/06/17 04:41:00;;;;;;;4.45;3.63;;;;;;;15.37;65.71;101157.50;5069919;28;20746;-75
2022/06/17 04:43:34;;;;;;;3.97;3.50;;;;;;;15.51;65.37;101157.34;5074680;28;20048;-75
2022/06/17 04:46:13;;;;;;;4.63;3.90;;;;;;;15.57;64.91;101142.78;5074430;28;20053;-75
2022/06/17 04:48:41;;;;;;;4.38;3.53;;;;;;;15.66;64.19;101151.19;5072835;28;20064;-76
2022/06/17 04:51:10;;;;;;;5.22;3.50;;;;;;;15.77;63.59;101152.56;5071472;28;20079;-76
2022/06/17 04:53:42;;;;;;;6.70;4.00;;;;;;;15.87;63.84;101145.75;5075108;28;20489;-75
2022/06/17 04:56:19;;;;;;;4.70;3.60;;;;;;;15.99;63.44;101161.94;5074025;28;20386;-75
2022/06/17 04:58:48;;;;;;;7.70;3.92;;;;;;;16.09;63.03;101144.72;5074320;28;20063;-76
2022/06/17 05:01:20;;;;;;;6.90;4.60;;;;;;;16.15;62.66;101143.38;5068485;28;20060;-75
2022/06/17 05:03:47;;;;;;;4.65;4.20;;;;;;;16.20;63.00;101145.97;5073831;28;20048;-75
2022/06/17 05:06:16;;;;;;;5.82;4.93;;;;;;;16.20;62.53;101145.97;5073664;28;20048;-75
2022/06/17 05:08:49;;;;;;;4.97;4.22;;;;;;;16.27;62.24;101147.44;5073727;28;20412;-75
2022/06/17 05:11:23;;;;;;;4.93;4.50;;;;;;;16.29;61.93;101147.94;5068849;28;20049;-75
2022/06/17 05:13:57;;;;;;;6.10;4.55;;;;;;;16.30;61.93;101144.78;5055247;28;20057;-75
2022/06/17 05:16:24;;;;;;;5.10;4.30;;;;;;;16.35;61.79;101141.78;5053587;28;20402;-75
2022/06/17 05:18:51;;;;;;;5.47;4.07;;;;;;;16.42;61.79;101139.28;5053746;28;20056;-75
2022/06/17 05:21:21;;;;;;;5.68;4.55;;;;;;;16.45;61.63;101146.22;5060572;28;20485;-75
2022/06/17 05:23:51;;;;;;;6.25;4.88;;;;;;;16.46;61.56;101147.03;5073973;28;20056;-76
2022/06/17 05:26:19;;;;;;;5.05;4.55;;;;;;;16.49;61.40;101144.38;5073222;28;20056;-75
2022/06/17 05:28:46;;;;;;;5.32;4.10;;;;;;;16.52;61.23;101143.69;5072840;28;20052;-75
2022/06/17 05:31:18;;;;;;;5.90;4.70;;;;;;;16.58;61.14;101150.78;5067005;28;20049;-76
2022/06/17 05:33:47;;;;;;;6.53;4.40;;;;;;;16.64;61.44;101143.78;5073296;28;20053;-75
2022/06/17 05:36:17;;;;;;;5.70;4.53;;;;;;;16.72;61.24;101136.47;5073144;28;20063;-75
2022/06/17 05:38:45;;;;;;;7.47;4.70;;;;;;;16.84;61.32;101138.59;5072869;28;20393;-75
2022/06/17 05:41:16;;;;;;;6.50;4.70;;;;;;;16.91;61.50;101136.06;5071152;28;20056;-75
2022/06/17 05:43:43;;;;;;;5.45;4.43;;;;;;;17.00;61.39;101145.25;5068874;28;20064;-75
2022/06/17 05:46:11;;;;;;;5.10;4.60;;;;;;;17.12;60.92;101141.72;5073154;28;20048;-76
2022/06/17 05:48:39;;;;;;;8.02;5.00;;;;;;;17.22;61.34;101140.47;5073227;28;20495;-75
2022/06/17 05:51:07;;;;;;;7.00;5.10;;;;;;;17.26;61.28;101141.44;5073118;28;20496;-75
2022/06/17 05:53:34;;;;;;;6.72;4.60;;;;;;;17.32;61.52;101153.31;5068668;28;20421;-76
2022/06/17 05:56:01;;;;;;;6.47;5.28;;;;;;;17.34;61.34;101148.16;5068208;28;20056;-75
2022/06/17 05:58:28;;;;;;;5.93;4.38;;;;;;;17.42;61.43;101150.06;5072658;28;20060;-75
2022/06/17 06:00:56;;;;;;;7.13;4.57;;;;;;;17.57;60.77;101145.81;5092219;28;20044;-76
2022/06/17 06:03:26;;;;;;;6.95;4.47;;;;;;;17.76;60.51;101142.47;5074165;28;20052;-76
2022/06/17 06:05:55;;;;;;;5.22;4.72;;;;;;;18.00;59.37;101139.75;5068036;28;20052;-75
2022/06/17 06:08:22;;;;;;;3.58;3.28;;;;;;;18.31;58.49;101134.75;5072520;28;20064;-75
2022/06/17 06:10:49;;;;;;;7.15;3.80;;;;;;;18.63;57.06;101136.66;5072316;28;20512;-75
2022/06/17 06:13:19;;;;;;;5.45;3.83;;;;;;;18.99;56.41;101131.34;5072126;28;20053;-75
2022/06/17 06:15:49;;;;;;;6.18;3.80;;;;;;;19.34;55.62;101137.28;5068026;28;20064;-75
2022/06/17 06:18:18;;;;;;;4.38;3.95;;;;;;;19.71;54.57;101139.97;5072562;28;20064;-75
2022/06/17 06:20:47;;;;;;;4.80;3.75;;;;;;;19.99;54.27;101133.44;5072649;28;20386;-76
2022/06/17 06:23:15;;;;;;;5.50;4.20;;;;;;;20.15;53.74;101136.31;5072285;28;20056;-75
2022/06/17 06:25:43;;;;;;;4.22;3.83;;;;;;;20.26;53.78;101135.41;5070320;28;20382;-75
2022/06/17 06:28:13;;;;;;;4.07;3.63;;;;;;;20.39;53.83;101141.81;5072371;28;20056;-75
2022/06/17 06:30:40;;;;;;;6.30;4.10;;;;;;;20.46;53.75;101133.47;5072588;28;20056;-75
2022/06/17 06:33:10;;;;;;;5.88;3.92;;;;;;;20.66;52.93;101134.41;5064560;28;20049;-75
2022/06/17 06:35:39;;;;;;;6.68;3.70;;;;;;;20.83;52.59;101132.34;5069956;28;20058;-75
2022/06/17 06:38:07;;;;;;;6.07;4.00;;;;;;;21.03;53.01;101134.06;5071733;28;20057;-75
2022/06/17 06:40:36;;;;;;;6.13;3.75;;;;;;;21.27;52.60;101138.66;5071828;28;20074;-75
2022/06/17 06:43:04;;;;;;;5.10;3.58;;;;;;;21.39;51.82;101132.00;5069195;28;20072;-76
2022/06/17 06:45:35;;;;;;;5.57;3.63;;;;;;;21.62;51.48;101134.94;5071712;28;20067;-75
2022/06/17 06:48:05;;;;;;;4.40;3.40;;;;;;;21.73;51.11;101140.81;5072523;28;20059;-75
2022/06/17 06:50:34;;;;;;;5.28;3.25;;;;;;;22.02;50.93;101132.88;5069917;28;20066;-75
2022/06/17 06:53:02;;;;;;;4.85;3.20;;;;;;;22.18;50.78;101125.06;5072160;28;20405;-75
2022/06/17 06:55:30;;;;;;;4.03;3.00;;;;;;;22.38;50.29;101125.03;5072181;28;20052;-75
2022/06/17 06:58:01;;;;;;;7.15;3.35;;;;;;;22.56;49.80;101123.31;5071696;28;20048;-75
2022/06/17 07:00:31;;;;;;;6.15;3.20;;;;;;;22.62;49.78;101124.63;5069613;28;20388;-75
2022/06/17 07:02:58;;;;;;;6.28;3.13;;;;;;;22.79;49.79;101119.59;5067723;28;20492;-75
2022/06/17 07:05:25;;;;;;;3.17;2.88;;;;;;;22.95;48.91;101119.41;5072334;28;20057;-76
2022/06/17 07:07:54;;;;;;;5.07;3.33;;;;;;;23.11;48.25;101114.41;5071896;28;20044;-75
2022/06/17 07:10:25;;;;;;;7.15;3.22;;;;;;;23.19;48.53;101118.19;5085840;28;20174;-76
2022/06/17 07:12:53;;;;;;;3.67;2.50;;;;;;;23.23;47.88;101119.03;5087724;28;20408;-76
2022/06/17 07:15:22;;;;;;;4.07;2.85;;;;;;;23.22;48.46;101126.72;5071183;28;20492;-75
2022/06/17 07:17:57;;;;;;;4.78;2.75;;;;;;;23.24;48.77;101129.19;5071947;28;20121;-76
2022/06/17 07:20:46;;;;;;;4.35;3.25;;;;;;;23.39;48.60;101122.50;5071386;28;20064;-75
2022/06/17 07:23:16;;;;;;;3.28;2.80;;;;;;;23.46;48.07;101118.94;5057270;28;20048;-75
2022/06/17 07:25:44;;;;;;;3.92;2.90;;;;;;;23.43;47.91;101106.28;5068736;28;20412;-76
2022/06/17 07:28:14;;;;;;;4.38;2.88;;;;;;;23.50;47.81;101106.41;5071843;28;20075;-75
2022/06/17 07:30:45;;;;;;;5.20;3.30;;;;;;;23.46;48.07;101102.69;5071234;28;20049;-76
2022/06/17 07:33:13;;;;;;;3.90;2.60;;;;;;;23.57;47.32;101104.84;5055443;28;20057;-76
2022/06/17 07:35:42;;;;;;;6.93;3.03;;;;;;;23.50;47.46;101109.25;5071857;28;20060;-76
2022/06/17 07:40:58;;;;;;;4.65;2.95;;;;;;;23.56;48.12;101111.72;5068908;28;20064;-76
2022/06/17 07:43:25;;;;;;;2.45;2.25;;;;;;;23.69;47.74;101107.44;5066186;28;20048;-76
2022/06/17 07:45:54;;;;;;;4.95;2.55;;;;;;;23.79;47.20;101106.75;5073035;28;20407;-76
2022/06/17 07:48:21;;;;;;;2.95;2.28;;;;;;;23.86;46.07;101106.00;5070208;28;20063;-76
2022/06/17 07:50:49;;;;;;;6.18;2.50;;;;;;;23.97;45.04;101106.13;5070087;28;20059;-75
2022/06/17 07:53:17;;;;;;;3.65;2.30;;;;;;;24.09;45.04;101098.09;5068267;28;20049;-76
2022/06/17 07:55:45;;;;;;;2.47;1.95;;;;;;;24.31;44.41;101092.59;5069384;28;20057;-76
2022/06/17 07:58:13;;;;;;;3.15;2.05;;;;;;;24.80;43.22;101077.13;5073539;28;20052;-77
2022/06/17 08:00:43;;;;;;;3.67;2.22;;;;;;;25.77;40.03;101088.97;5090629;28;20044;-78
2022/06/17 08:03:12;;;;;;;3.65;2.28;;;;;;;26.87;36.62;101075.13;5074013;28;20421;-77
2022/06/17 08:05:43;;;;;;;2.80;2.08;;;;;;;27.45;34.66;101072.91;5073574;28;20052;-75
2022/06/17 08:08:11;;;;;;;2.45;1.92;;;;;;;28.27;34.46;101065.84;5072483;28;20056;-75
2022/06/17 08:10:39;;;;;;;4.50;2.13;;;;;;;28.87;31.15;101064.47;5074712;28;20053;-75
2022/06/17 08:13:08;;;;;;;3.83;2.00;;;;;;;29.77;29.63;101069.06;5071421;28;20059;-77
2022/06/17 08:15:36;;;;;;;3.30;1.52;;;;;;;30.69;29.11;101067.97;5071015;28;20045;-76
2022/06/17 08:18:04;;;;;;;5.50;3.22;;;;;;;31.51;26.75;101068.41;5074111;28;20049;-76
2022/06/17 08:20:35;;;;;;;3.75;1.83;;;;;;;31.92;25.66;101064.19;5073611;28;20048;-76
2022/06/17 08:23:05;;;;;;;2.60;1.65;;;;;;;32.63;24.18;101057.88;5073805;28;20060;-76
2022/06/17 08:25:34;;;;;;;3.95;2.03;;;;;;;32.65;23.60;101053.28;5073705;28;20056;-76
2022/06/17 08:28:04;;;;;;;2.78;2.10;;;;;;;33.87;22.43;101055.50;5069753;28;20068;-75
2022/06/17 08:30:33;;;;;;;3.75;1.90;;;;;;;34.20;21.89;101052.34;5076088;28;20052;-75
2022/06/17 08:33:01;;;;;;;2.53;1.77;;;;;;;35.19;21.16;101052.13;5074287;28;20052;-76
2022/06/17 08:35:31;;;;;;;3.28;2.00;;;;;;;35.56;20.72;101041.56;5079060;28;20056;-74
2022/06/17 08:38:03;;;;;;;3.97;1.83;;;;;;;36.34;20.73;101057.03;5074080;28;20060;-77
2022/06/17 08:40:38;;;;;;;3.65;1.77;;;;;;;37.16;19.70;101061.28;5069859;28;20522;-76
2022/06/17 08:43:52;;;;;;;3.92;2.00;;;;;;;37.56;19.14;101057.31;5061739;28;20056;-76
2022/06/17 08:46:52;;;;;;;3.83;2.20;;;;;;;39.06;17.93;101061.81;5050215;28;20060;-76
2022/06/17 08:49:38;;;;;;;3.95;1.63;;;;;;;39.85;16.91;101051.56;5071409;28;20055;-76
2022/06/17 08:52:24;;;;;;;5.70;1.80;;;;;;;40.50;16.06;101052.25;5074895;28;20053;-76
2022/06/17 08:55:03;;;;;;;8.45;1.95;;;;;;;40.83;16.11;101044.47;5070758;28;20067;-76
2022/06/17 08:57:37;;;;;;;2.75;1.70;;;;;;;40.51;16.43;101047.22;5074606;28;20056;-77
2022/06/17 09:00:11;;;;;;;3.75;1.75;;;;;;;40.33;16.14;101045.41;5071239;28;20696;-75
2022/06/17 09:03:12;;;;;;;2.97;1.77;;;;;;;41.72;16.22;101043.75;5072952;28;20060;-75
2022/06/17 09:05:55;;;;;;;3.40;1.92;;;;;;;42.41;14.60;101051.66;5073318;28;20070;-79
2022/06/17 09:08:41;;;;;;;1.80;1.50;;;;;;;42.88;14.11;101052.13;5071541;28;20044;-76
2022/06/17 09:11:20;;;;;;;2.25;1.70;;;;;;;42.45;13.92;101047.16;5073473;28;20059;-76
2022/06/17 09:14:02;;;;;;;2.78;1.70;;;;;;;42.96;14.47;101038.56;5062364;28;20365;-76
2022/06/17 09:16:38;;;;;;;2.67;1.90;;;;;;;42.75;14.71;101035.81;5072573;28;20055;-75
2022/06/17 09:19:08;;;;;;;1.85;1.42;;;;;;;43.07;14.29;101035.69;5071742;28;20059;-76
2022/06/17 09:21:40;;;;;;;2.63;1.90;;;;;;;43.49;14.13;101035.97;5072444;28;20071;-76
2022/06/17 09:24:12;;;;;;;3.70;1.70;;;;;;;43.63;13.82;101031.19;5060223;28;20049;-77
2022/06/17 09:26:46;;;;;;;3.47;1.70;;;;;;;44.16;14.07;101024.19;5066921;28;20071;-74
2022/06/17 09:29:19;;;;;;;2.10;1.40;;;;;;;44.44;14.04;101025.41;5073404;28;20049;-74
2022/06/17 09:31:50;;;;;;;2.88;1.58;;;;;;;44.47;12.87;101028.09;5067330;28;20045;-74
2022/06/17 09:34:23;;;;;;;4.25;1.63;;;;;;;44.36;13.08;101023.03;5069117;28;20055;-74
2022/06/17 09:36:57;;;;;;;2.65;1.67;;;;;;;44.93;12.39;101022.78;5072189;28;20063;-79
2022/06/17 09:39:33;;;;;;;2.45;1.63;;;;;;;45.41;11.93;101021.38;5071399;28;20049;-76
2022/06/17 09:42:07;;;;;;;2.97;1.77;;;;;;;44.30;12.37;101019.31;5068092;28;20049;-78
2022/06/17 09:44:41;;;;;;;3.72;1.45;;;;;;;44.23;13.01;101022.84;5072281;28;20048;-78
2022/06/17 09:47:14;;;;;;;2.33;1.38;;;;;;;44.77;12.58;101010.56;5071439;28;20067;-77
2022/06/17 09:49:48;;;;;;;3.05;1.60;;;;;;;44.66;12.37;101016.50;5072063;28;20060;-77
2022/06/17 09:52:20;;;;;;;3.15;1.50;;;;;;;43.62;12.13;101012.78;5068238;28;20048;-78
2022/06/17 09:54:55;;;;;;;5.07;1.75;;;;;;;43.70;12.32;101004.25;5070207;28;20049;-76
2022/06/17 09:57:29;;;;;;;2.45;1.70;;;;;;;42.93;12.81;101011.13;5052790;28;20056;-76
2022/06/17 10:00:02;;;;;;;2.58;1.50;;;;;;;43.30;13.45;101003.44;5059124;28;20412;-77
2022/06/17 10:02:36;;;;;;;1.58;1.35;;;;;;;44.28;12.21;101006.53;5072941;28;20101;-77
2022/06/17 10:05:14;;;;;;;2.78;1.77;;;;;;;44.57;12.62;101002.13;5068947;28;20408;-76
2022/06/17 10:07:51;;;;;;;6.82;1.52;;;;;;;44.92;11.29;101003.53;5067634;28;20048;-77
2022/06/17 10:10:30;;;;;;;2.58;1.35;;;;;;;45.22;11.59;101008.69;5071006;28;20048;-76
2022/06/17 10:13:13;;;;;;;2.88;1.60;;;;;;;45.91;11.07;100999.50;5072942;28;20059;-76
2022/06/17 10:18:31;;;;;;;2.60;1.50;;;;;;;44.70;11.25;100993.50;5073605;28;20048;-77
2022/06/17 10:18:43;;;;;;;1.75;1.35;;;;;;;43.68;12.30;100989.31;5072651;28;20052;-77
2022/06/17 10:21:29;;;;;;;1.80;1.10;;;;;;;42.48;13.17;100992.59;5069576;28;20052;-77
2022/06/17 10:24:06;;;;;;;2.97;1.33;;;;;;;42.18;12.88;100993.78;5065388;28;20056;-77
2022/06/17 10:26:55;;;;;;;2.17;1.45;;;;;;;41.36;13.92;100994.25;5067568;28;20079;-76
2022/06/17 10:29:42;;;;;;;1.85;1.30;;;;;;;41.31;13.65;100997.16;5072713;28;20056;-77
2022/06/17 10:32:10;;;;;;;1.63;1.10;;;;;;;40.70;13.04;101001.81;5067102;28;20060;-76
2022/06/17 10:34:43;;;;;;;1.50;1.10;;;;;;;40.52;13.29;100993.34;5069468;28;20424;-76
2022/06/17 10:37:12;;;;;;;1.73;0.95;;;;;;;41.11;13.07;100986.28;5071070;28;20052;-76
2022/06/17 10:39:40;;;;;;;1.65;1.33;;;;;;;41.67;12.15;100980.97;5070689;28;20044;-76
2022/06/17 10:42:14;;;;;;;1.83;1.30;;;;;;;41.67;12.09;100975.09;5072302;28;20056;-75
2022/06/17 10:44:50;;;;;;;2.80;1.27;;;;;;;41.52;12.82;100972.31;5066657;28;20507;-75
2022/06/17 10:47:29;;;;;;;1.70;1.30;;;;;;;42.60;13.25;100967.88;5052969;28;20057;-77
2022/06/17 10:50:03;;;;;;;2.17;1.55;;;;;;;43.26;11.58;100968.53;5066514;28;20055;-85
2022/06/17 10:52:37;;;;;;;1.90;1.00;;;;;;;43.78;12.80;100973.00;5070428;28;20489;-83
2022/06/17 10:55:06;;;;;;;1.80;1.30;;;;;;;44.27;10.82;100960.84;5072247;28;20052;-83
2022/06/17 10:57:37;;;;;;;4.05;1.50;;;;;;;44.89;10.30;100963.50;5069492;28;20044;-84
2022/06/17 11:00:23;;;;;;;2.67;1.60;;;;;;;46.20;9.97;100960.88;5069284;28;20061;-85
2022/06/17 11:02:51;;;;;;;1.83;1.40;;;;;;;47.06;9.94;100948.13;5071345;28;20068;-85
2022/06/17 11:05:34;;;;;;;1.88;1.20;;;;;;;46.78;9.00;100957.44;5069964;28;20040;-80
2022/06/17 11:08:01;;;;;;;2.17;1.20;;;;;;;45.94;9.15;100957.16;5066308;28;20059;-81
2022/06/17 11:10:31;;;;;;;2.33;1.33;;;;;;;46.38;9.07;100966.78;5083203;28;20052;-80
2022/06/17 11:13:01;;;;;;;2.47;1.20;;;;;;;46.00;10.27;100965.16;5073026;28;20044;-82
2022/06/17 11:15:33;;;;;;;2.55;1.40;;;;;;;44.94;10.62;100966.41;5076146;28;20053;-79
2022/06/17 11:18:05;;;;;;;2.20;1.50;;;;;;;44.69;12.26;100976.41;5079875;28;20053;-81
2022/06/17 11:20:36;;;;;;;3.45;1.30;;;;;;;45.32;11.50;100980.53;5071275;28;20052;-81
2022/06/17 11:23:07;;;;;;;2.78;1.13;;;;;;;45.00;12.02;100975.16;5072138;28;20056;-84
2022/06/17 11:25:38;;;;;;;2.90;1.30;;;;;;;44.97;11.82;100973.31;5076600;28;20052;-81
2022/06/17 11:28:13;;;;;;;1.60;1.20;;;;;;;45.12;11.10;100964.09;5079171;28;20429;-83
2022/06/17 11:30:51;;;;;;;1.60;1.13;;;;;;;44.83;10.71;100965.63;5080782;28;20052;-83
2022/06/17 11:33:25;;;;;;;2.40;1.27;;;;;;;44.41;10.40;100964.81;5081158;28;20440;-81
2022/06/17 11:36:01;;;;;;;1.50;1.05;;;;;;;44.06;10.91;100969.22;5081267;28;20067;-82
2022/06/17 11:38:31;;;;;;;1.65;0.95;;;;;;;43.86;11.50;100964.47;5081906;28;20040;-82
2022/06/17 11:41:00;;;;;;;2.00;1.10;;;;;;;42.34;10.66;100962.19;5078574;28;20059;-81
2022/06/17 11:43:33;;;;;;;1.67;1.10;;;;;;;41.28;11.30;100957.25;5079882;28;20055;-80
2022/06/17 11:46:09;;;;;;;2.10;1.10;;;;;;;40.63;11.69;100949.66;5065931;28;20064;-80
2022/06/17 11:48:41;;;;;;;1.50;1.20;;;;;;;39.72;12.80;100950.59;5068117;28;20044;-81
2022/06/17 11:51:12;;;;;;;1.73;1.00;;;;;;;39.93;13.18;100933.94;5069688;28;20044;-81